Time;durP1;ratioP1;P1;durP2;ratioP2;P2;SDS_P1;SDS_P2;PMS_P1;PMS_P2;Temp;Humidity;BMP_temperature;BMP_pressure;BME280_temperature;BME280_humidity;BME280_pressure;Samples;Min_cycle;Max_cycle;Signal;HPM_P1;HPM_P2
2022/01/11 00:01:04;;;;;;;21.37;11.37;;;0.10;1.00;;;;;;5032390;28;20488;-61
2022/01/11 00:03:31;;;;;;;21.27;10.70;;;0.10;1.00;;;;;;5032364;28;20480;-62
2022/01/11 00:06:01;;;;;;;23.03;11.60;;;0.10;1.00;;;;;;5031842;28;20447;-63
2022/01/11 00:08:31;;;;;;;23.63;11.37;;;0.10;1.00;;;;;;5032376;28;20482;-63
2022/01/11 00:11:04;;;;;;;28.30;11.60;;;0.10;1.00;;;;;;5032066;28;20475;-62
2022/01/11 00:13:32;;;;;;;29.27;12.27;;;0.20;1.00;;;;;;5032382;28;20472;-61
2022/01/11 00:15:59;;;;;;;22.33;11.13;;;0.20;1.00;;;;;;5032281;28;20470;-61
2022/01/11 00:18:25;;;;;;;20.33;11.03;;;0.20;1.00;;;;;;5032092;28;20491;-62
2022/01/11 00:20:52;;;;;;;20.00;10.13;;;0.10;1.00;;;;;;5031961;28;20528;-63
2022/01/11 00:26:05;;;;;;;20.30;9.67;;;0.10;1.00;;;;;;5031837;28;20434;-62
2022/01/11 00:28:32;;;;;;;20.23;10.33;;;0.00;1.00;;;;;;5031917;28;20440;-62
2022/01/11 00:30:58;;;;;;;19.77;9.83;;;0.00;1.00;;;;;;5031840;28;20834;-62
2022/01/11 00:33:33;;;;;;;21.33;10.23;;;0.00;1.00;;;;;;5031672;28;20452;-62
2022/01/11 00:36:00;;;;;;;19.13;9.97;;;0.00;1.00;;;;;;5031436;28;20503;-62
2022/01/11 00:38:30;;;;;;;23.47;9.27;;;-0.10;1.00;;;;;;5031453;28;20486;-62
2022/01/11 00:40:59;;;;;;;18.20;9.57;;;-0.10;1.00;;;;;;5031644;28;20471;-62
2022/01/11 00:43:29;;;;;;;19.23;9.07;;;0.00;1.00;;;;;;5031871;28;20527;-62
2022/01/11 00:45:57;;;;;;;21.30;10.10;;;-0.10;1.00;;;;;;5034350;28;20455;-62
2022/01/11 00:48:24;;;;;;;20.33;9.80;;;0.00;1.00;;;;;;5035600;28;20445;-62
2022/01/11 00:50:52;;;;;;;28.90;11.43;;;0.00;1.00;;;;;;5035390;28;20469;-63
2022/01/11 00:53:19;;;;;;;22.30;10.40;;;0.00;1.00;;;;;;5035647;28;20459;-62
2022/01/11 00:55:47;;;;;;;18.80;10.93;;;0.00;1.00;;;;;;5035731;28;20449;-62
2022/01/11 00:58:15;;;;;;;25.77;11.33;;;-0.10;1.00;;;;;;5035349;28;20513;-62
2022/01/11 01:00:44;;;;;;;23.47;10.73;;;-0.10;1.00;;;;;;5035552;28;20535;-62
2022/01/11 01:03:11;;;;;;;22.50;12.20;;;-0.10;1.00;;;;;;5035103;28;20798;-62
2022/01/11 01:05:38;;;;;;;19.43;10.40;;;-0.10;1.00;;;;;;5035242;28;20457;-62
2022/01/11 01:08:05;;;;;;;19.20;10.83;;;-0.10;1.00;;;;;;5035366;28;20446;-62
2022/01/11 01:10:36;;;;;;;20.13;10.00;;;-0.10;1.00;;;;;;5035225;28;20822;-62
2022/01/11 01:13:06;;;;;;;22.13;10.17;;;-0.10;1.00;;;;;;5035422;28;20452;-62
2022/01/11 01:15:34;;;;;;;20.17;10.00;;;-0.10;1.00;;;;;;5033834;28;20455;-62
2022/01/11 01:18:02;;;;;;;16.90;8.43;;;-0.10;1.00;;;;;;5033699;28;20483;-63
2022/01/11 01:20:29;;;;;;;19.87;9.60;;;-0.10;1.00;;;;;;5034298;28;20833;-62
2022/01/11 01:22:56;;;;;;;19.37;9.10;;;-0.10;1.00;;;;;;5034391;28;21044;-63
2022/01/11 01:25:23;;;;;;;15.40;8.37;;;0.00;1.00;;;;;;5033683;28;20506;-62
2022/01/11 01:27:51;;;;;;;14.30;8.07;;;0.10;1.00;;;;;;5033718;28;20968;-62
2022/01/11 01:30:20;;;;;;;16.93;8.80;;;0.10;1.00;;;;;;5033757;28;20538;-63
2022/01/11 01:32:48;;;;;;;14.83;9.10;;;0.10;1.00;;;;;;5033772;28;20503;-62
2022/01/11 01:35:17;;;;;;;22.60;9.07;;;0.10;1.00;;;;;;5033735;28;20545;-62
2022/01/11 01:37:44;;;;;;;16.70;8.57;;;0.20;1.00;;;;;;5033179;28;20487;-62
2022/01/11 01:40:13;;;;;;;16.83;8.37;;;0.20;99.90;;;;;;5034005;28;20474;-62
2022/01/11 01:42:40;;;;;;;18.13;7.43;;;0.20;99.90;;;;;;5034232;28;20455;-62
2022/01/11 01:45:07;;;;;;;17.33;8.10;;;0.30;99.90;;;;;;5033870;28;20459;-61
2022/01/11 01:47:34;;;;;;;14.60;7.80;;;0.20;99.90;;;;;;5033290;28;20823;-62
2022/01/11 01:50:00;;;;;;;12.97;7.10;;;0.20;99.90;;;;;;5033476;28;20498;-62
2022/01/11 01:52:29;;;;;;;14.33;7.53;;;0.20;99.90;;;;;;5033412;28;20451;-63
2022/01/11 01:54:56;;;;;;;17.47;7.20;;;0.20;99.90;;;;;;5033160;28;20486;-63
2022/01/11 01:57:25;;;;;;;11.77;7.13;;;0.10;99.90;;;;;;5032823;28;20483;-62
2022/01/11 01:59:52;;;;;;;11.40;6.60;;;0.10;99.90;;;;;;5033413;28;20484;-62
2022/01/11 02:02:19;;;;;;;12.77;7.17;;;0.10;99.90;;;;;;5033426;28;20936;-63
2022/01/11 02:04:47;;;;;;;12.63;6.57;;;0.10;99.90;;;;;;5033016;28;21013;-62
2022/01/11 02:07:14;;;;;;;11.27;6.70;;;0.10;99.90;;;;;;5033106;28;20807;-63
2022/01/11 02:09:43;;;;;;;13.77;7.70;;;0.10;99.90;;;;;;5033007;28;20682;-60
2022/01/11 02:12:10;;;;;;;13.70;6.70;;;0.10;99.90;;;;;;5032848;28;20510;-60
2022/01/11 02:14:36;;;;;;;13.27;7.27;;;0.10;99.90;;;;;;4998158;28;1025252;-61
2022/01/11 02:17:04;;;;;;;13.43;7.60;;;0.10;99.90;;;;;;5033612;28;20743;-60
2022/01/11 02:19:30;;;;;;;12.67;6.90;;;0.00;99.90;;;;;;5034081;28;20489;-62
2022/01/11 02:21:58;;;;;;;12.87;7.13;;;0.00;99.90;;;;;;5033680;28;20933;-62
2022/01/11 02:24:27;;;;;;;16.67;7.70;;;0.00;99.90;;;;;;5033727;28;20507;-62
2022/01/11 02:26:54;;;;;;;12.20;7.57;;;0.00;99.90;;;;;;5033504;28;20454;-61
2022/01/11 02:29:21;;;;;;;10.70;6.83;;;0.00;99.90;;;;;;5033671;28;21028;-62
2022/01/11 02:31:47;;;;;;;16.00;7.40;;;0.00;99.90;;;;;;5033812;28;20458;-62
2022/01/11 02:34:14;;;;;;;13.07;7.27;;;0.10;99.90;;;;;;5033413;28;20828;-62
2022/01/11 02:36:41;;;;;;;10.87;7.27;;;0.00;99.90;;;;;;5033398;28;21029;-62
2022/01/11 02:39:10;;;;;;;9.13;5.97;;;0.00;99.90;;;;;;5033137;28;20493;-61
2022/01/11 02:41:48;;;;;;;12.90;6.70;;;0.00;99.90;;;;;;5033677;28;20511;-62
2022/01/11 02:44:15;;;;;;;11.40;6.50;;;-0.10;99.90;;;;;;5033360;28;20499;-62
2022/01/11 02:46:41;;;;;;;12.40;6.70;;;-0.10;99.90;;;;;;5033211;28;20458;-62
2022/01/11 02:49:08;;;;;;;15.77;6.87;;;-0.10;99.90;;;;;;5033368;28;20534;-61
2022/01/11 02:51:35;;;;;;;11.20;6.17;;;-0.10;99.90;;;;;;5033083;28;20452;-62
2022/01/11 02:54:04;;;;;;;14.53;6.83;;;-0.10;99.90;;;;;;5033289;28;20952;-62
2022/01/11 02:56:33;;;;;;;16.73;6.30;;;-0.10;99.90;;;;;;5033140;28;20799;-62
2022/01/11 02:59:00;;;;;;;9.90;6.80;;;-0.10;99.90;;;;;;5033159;28;20498;-62
2022/01/11 03:01:27;;;;;;;8.63;6.03;;;-0.20;99.90;;;;;;5032979;28;20450;-62
2022/01/11 03:03:54;;;;;;;11.00;6.80;;;-0.20;99.90;;;;;;5033261;28;20504;-62
2022/01/11 03:06:21;;;;;;;10.83;6.53;;;-0.20;99.90;;;;;;5032897;28;20458;-61
2022/01/11 03:08:48;;;;;;;12.43;6.23;;;-0.20;99.90;;;;;;5032233;28;20447;-64
2022/01/11 03:11:17;;;;;;;10.10;6.13;;;-0.20;99.90;;;;;;5033033;28;20795;-62
2022/01/11 03:13:46;;;;;;;12.53;6.27;;;-0.20;99.90;;;;;;5032595;28;20466;-62
2022/01/11 03:16:13;;;;;;;11.97;6.50;;;-0.20;99.90;;;;;;5032719;28;20508;-62
2022/01/11 03:18:40;;;;;;;9.77;6.07;;;-0.30;99.90;;;;;;5032358;28;20482;-62
2022/01/11 03:21:07;;;;;;;11.40;5.80;;;-0.30;99.90;;;;;;5032918;28;20523;-61
2022/01/11 03:23:34;;;;;;;13.53;7.27;;;-0.40;99.90;;;;;;5032393;28;20974;-61
2022/01/11 03:26:02;;;;;;;15.53;7.67;;;-0.40;99.90;;;;;;5032694;28;20458;-63
2022/01/11 03:28:29;;;;;;;11.73;6.73;;;-0.40;99.90;;;;;;5032622;28;20492;-62
2022/01/11 03:30:57;;;;;;;11.30;6.40;;;-0.40;99.90;;;;;;5032907;28;20480;-61
2022/01/11 03:33:24;;;;;;;12.00;5.97;;;-0.40;99.90;;;;;;5032578;28;20457;-63
2022/01/11 03:35:51;;;;;;;10.27;5.80;;;-0.40;99.90;;;;;;5032859;28;20500;-62
2022/01/11 03:38:19;;;;;;;14.33;7.37;;;-0.40;99.90;;;;;;5032978;28;20487;-62
2022/01/11 03:40:46;;;;;;;12.20;6.13;;;-0.30;99.90;;;;;;5032968;28;20473;-62
2022/01/11 03:43:12;;;;;;;14.17;7.40;;;-0.30;99.90;;;;;;5032913;28;20449;-61
2022/01/11 03:45:39;;;;;;;11.63;6.93;;;-0.30;99.90;;;;;;5032975;28;20453;-61
2022/01/11 03:48:09;;;;;;;14.00;6.47;;;-0.20;99.90;;;;;;5032552;28;20503;-61
2022/01/11 03:50:36;;;;;;;12.33;6.80;;;-0.20;99.90;;;;;;5032655;28;20469;-61
2022/01/11 03:53:10;;;;;;;11.33;6.37;;;-0.20;99.90;;;;;;5031978;28;20981;-62
2022/01/11 03:55:47;;;;;;;11.70;5.97;;;-0.20;99.90;;;;;;5032458;28;20958;-62
2022/01/11 03:58:15;;;;;;;11.03;5.10;;;-0.20;99.90;;;;;;5031688;28;20482;-61
2022/01/11 04:00:42;;;;;;;12.27;5.97;;;-0.10;99.90;;;;;;5032070;28;20477;-62
2022/01/11 04:03:11;;;;;;;9.87;5.90;;;-0.10;99.90;;;;;;5032349;28;20849;-62
2022/01/11 04:05:41;;;;;;;10.00;5.40;;;-0.10;99.90;;;;;;5032183;28;20831;-61
2022/01/11 04:08:08;;;;;;;7.07;4.17;;;-0.10;99.90;;;;;;5031926;28;20842;-62
2022/01/11 04:10:34;;;;;;;7.37;4.27;;;-0.10;99.90;;;;;;5031628;28;20476;-61
2022/01/11 04:13:01;;;;;;;10.70;6.03;;;-0.10;99.90;;;;;;5031917;28;20562;-62
2022/01/11 04:15:28;;;;;;;11.07;4.87;;;-0.10;99.90;;;;;;5031726;28;20462;-62
2022/01/11 04:17:55;;;;;;;8.03;4.87;;;-0.10;99.90;;;;;;5031718;28;20539;-62
2022/01/11 04:20:23;;;;;;;5.63;4.20;;;-0.10;99.90;;;;;;5031602;28;20492;-61
2022/01/11 04:22:50;;;;;;;12.83;5.00;;;-0.10;99.90;;;;;;5031951;28;20449;-62
2022/01/11 04:25:17;;;;;;;8.73;4.20;;;-0.10;99.90;;;;;;5031998;28;20474;-62
2022/01/11 04:27:44;;;;;;;6.10;3.90;;;-0.10;99.90;;;;;;5031785;28;20506;-62
2022/01/11 04:30:12;;;;;;;8.43;4.63;;;-0.10;99.90;;;;;;5031791;28;20507;-61
2022/01/11 04:32:39;;;;;;;7.67;3.77;;;0.00;99.90;;;;;;5031911;28;20493;-61
2022/01/11 04:35:06;;;;;;;7.40;3.50;;;0.00;99.90;;;;;;5031862;28;20450;-62
2022/01/11 04:37:34;;;;;;;6.17;3.77;;;0.00;99.90;;;;;;5031447;28;20454;-62
2022/01/11 04:40:01;;;;;;;6.07;3.47;;;0.00;99.90;;;;;;5031748;28;20490;-62
2022/01/11 04:42:28;;;;;;;4.77;3.00;;;0.00;99.90;;;;;;5031949;28;20449;-62
2022/01/11 04:44:54;;;;;;;8.13;3.93;;;0.00;99.90;;;;;;5031645;28;20473;-62
2022/01/11 04:47:21;;;;;;;4.70;3.43;;;0.10;99.90;;;;;;5032762;28;20468;-62
2022/01/11 04:49:48;;;;;;;7.33;3.83;;;0.10;99.90;;;;;;5033388;28;20466;-62
2022/01/11 04:52:14;;;;;;;6.97;3.73;;;0.10;92.80;;;;;;5033268;28;20446;-62
2022/01/11 04:54:42;;;;;;;4.67;3.00;;;0.10;79.50;;;;;;5031488;28;20453;-62
2022/01/11 04:57:09;;;;;;;11.60;3.93;;;0.20;56.00;;;;;;5031782;28;20439;-61
2022/01/11 04:59:36;;;;;;;5.93;4.20;;;0.20;33.00;;;;;;5032817;28;20496;-62
2022/01/11 05:02:03;;;;;;;9.27;4.57;;;0.20;9.80;;;;;;5032603;28;20648;-62
2022/01/11 05:04:30;;;;;;;7.93;4.50;;;0.20;1.00;;;;;;5031656;28;20455;-62
2022/01/11 05:06:56;;;;;;;7.70;4.53;;;0.10;1.00;;;;;;5031546;28;20459;-62
2022/01/11 05:09:23;;;;;;;8.77;4.33;;;0.00;1.00;;;;;;5031781;28;20463;-61
2022/01/11 05:11:51;;;;;;;6.87;3.77;;;0.00;1.00;;;;;;5031386;28;20521;-62
2022/01/11 05:14:18;;;;;;;7.37;4.53;;;-0.10;1.00;;;;;;5031507;28;20489;-62
2022/01/11 05:16:45;;;;;;;5.93;3.73;;;-0.10;1.00;;;;;;5031333;28;20461;-62
2022/01/11 05:19:13;;;;;;;6.53;3.60;;;-0.20;1.00;;;;;;5030886;28;20489;-62
2022/01/11 05:21:40;;;;;;;7.03;4.30;;;-0.30;1.00;;;;;;5031287;28;20542;-61
2022/01/11 05:24:07;;;;;;;7.43;4.50;;;-0.30;1.00;;;;;;5031023;28;20540;-62
2022/01/11 05:26:34;;;;;;;8.33;4.47;;;-0.40;1.00;;;;;;5031340;28;20446;-62
2022/01/11 05:29:03;;;;;;;8.10;4.87;;;-0.40;1.00;;;;;;5031152;28;20454;-63
2022/01/11 05:31:30;;;;;;;8.03;5.83;;;-0.50;12.10;;;;;;5030492;28;20449;-61
2022/01/11 05:33:57;;;;;;;10.13;4.80;;;-0.50;30.30;;;;;;5034633;28;20464;-62
2022/01/11 05:36:23;;;;;;;8.10;5.07;;;-0.50;46.80;;;;;;5034577;28;20449;-62
2022/01/11 05:38:51;;;;;;;8.80;4.73;;;-0.60;61.30;;;;;;5034666;28;20480;-62
2022/01/11 05:41:17;;;;;;;8.60;4.43;;;-0.70;75.70;;;;;;5034615;28;20537;-61
2022/01/11 05:43:44;;;;;;;8.10;3.50;;;-0.80;85.70;;;;;;5034938;28;20951;-65
2022/01/11 05:46:12;;;;;;;7.77;3.97;;;-0.90;91.80;;;;;;5029791;28;20449;-60
2022/01/11 05:48:42;;;;;;;6.07;4.30;;;-1.00;99.90;;;;;;5034042;28;20446;-61
2022/01/11 05:51:09;;;;;;;6.33;3.97;;;-1.00;99.90;;;;;;5034483;28;20464;-61
2022/01/11 05:53:36;;;;;;;6.47;4.37;;;-1.10;99.90;;;;;;5034227;28;20833;-61
2022/01/11 05:56:02;;;;;;;9.63;6.03;;;-1.10;99.90;;;;;;5034075;28;20514;-61
2022/01/11 05:58:29;;;;;;;10.97;5.60;;;-1.10;99.90;;;;;;5033879;28;20538;-58
2022/01/11 06:00:56;;;;;;;9.73;5.97;;;-1.20;99.90;;;;;;5033988;28;20481;-61
2022/01/11 06:03:24;;;;;;;9.23;5.63;;;-1.30;99.90;;;;;;5033694;28;20459;-60
2022/01/11 06:05:51;;;;;;;11.70;6.37;;;-1.30;99.90;;;;;;5033505;28;20503;-62
2022/01/11 06:08:17;;;;;;;12.57;7.03;;;-1.30;99.90;;;;;;5033980;28;20456;-61
2022/01/11 06:10:44;;;;;;;12.00;6.53;;;-1.40;99.90;;;;;;5033742;28;20472;-61
2022/01/11 06:13:11;;;;;;;11.50;5.50;;;-1.40;99.90;;;;;;5033647;28;20456;-60
2022/01/11 06:15:38;;;;;;;12.37;6.40;;;-1.50;99.90;;;;;;5033303;28;20515;-61
2022/01/11 06:18:05;;;;;;;10.40;6.00;;;-1.50;99.90;;;;;;5033430;28;20449;-60
2022/01/11 06:20:33;;;;;;;10.43;6.23;;;-1.50;99.90;;;;;;5033689;28;20496;-59
2022/01/11 06:23:00;;;;;;;11.37;6.10;;;-1.60;99.90;;;;;;5033364;28;20456;-56
2022/01/11 06:25:27;;;;;;;10.30;5.77;;;-1.60;99.90;;;;;;5033247;28;20460;-59
2022/01/11 06:27:53;;;;;;;9.70;5.20;;;-1.50;99.90;;;;;;5033172;28;20458;-57
2022/01/11 06:30:20;;;;;;;9.73;5.13;;;-1.50;99.90;;;;;;5033015;28;20511;-63
2022/01/11 06:32:47;;;;;;;9.63;5.47;;;-1.50;99.90;;;;;;5041402;28;20488;-62
2022/01/11 06:35:16;;;;;;;12.07;5.13;;;-1.50;99.90;;;;;;5046018;28;20460;-61
2022/01/11 06:37:45;;;;;;;10.97;5.53;;;-1.50;99.90;;;;;;5036101;28;21031;-64
2022/01/11 06:40:13;;;;;;;13.63;5.70;;;-1.40;99.90;;;;;;5033508;28;20493;-63
2022/01/11 06:42:40;;;;;;;10.90;5.63;;;-1.40;99.90;;;;;;5032321;28;20487;-63
2022/01/11 06:45:07;;;;;;;9.27;5.50;;;-1.40;99.90;;;;;;5033045;28;20520;-64
2022/01/11 06:47:34;;;;;;;12.40;5.77;;;-1.30;99.90;;;;;;5033140;28;20453;-63
2022/01/11 06:50:01;;;;;;;12.60;5.73;;;-1.30;99.90;;;;;;5033192;28;20500;-62
2022/01/11 06:52:28;;;;;;;11.43;5.43;;;-1.20;99.90;;;;;;5033132;28;20979;-61
2022/01/11 06:54:56;;;;;;;8.73;5.30;;;-1.20;99.90;;;;;;5033276;28;20460;-61
2022/01/11 06:57:24;;;;;;;8.63;5.77;;;-1.20;99.90;;;;;;5032465;28;20826;-62
2022/01/11 06:59:51;;;;;;;11.07;5.10;;;-1.10;99.90;;;;;;5033053;28;20492;-62
2022/01/11 07:02:17;;;;;;;10.87;5.13;;;-1.00;99.90;;;;;;5032724;28;21013;-63
2022/01/11 07:04:44;;;;;;;12.67;5.47;;;-0.90;99.90;;;;;;5032663;28;20863;-62
2022/01/11 07:07:11;;;;;;;11.47;5.30;;;-0.90;99.90;;;;;;5032708;28;20512;-61
2022/01/11 07:09:37;;;;;;;14.77;6.03;;;-0.90;99.90;;;;;;5032885;28;20481;-62
2022/01/11 07:12:07;;;;;;;11.23;5.77;;;-0.80;99.90;;;;;;5033282;28;20454;-66
2022/01/11 07:14:33;;;;;;;11.67;5.43;;;-0.80;99.90;;;;;;5033005;28;20878;-63
2022/01/11 07:17:00;;;;;;;12.47;5.47;;;-0.80;99.90;;;;;;5032014;28;20455;-62
2022/01/11 07:19:29;;;;;;;9.73;5.37;;;-0.80;99.90;;;;;;5032468;28;20500;-67
2022/01/11 07:21:58;;;;;;;7.70;5.10;;;-0.80;99.90;;;;;;5032667;28;20476;-63
2022/01/11 07:24:25;;;;;;;10.53;5.13;;;-0.70;99.90;;;;;;5032379;28;20548;-63
2022/01/11 07:26:52;;;;;;;10.10;5.20;;;-0.60;99.90;;;;;;5032064;28;20463;-63
2022/01/11 07:29:20;;;;;;;8.17;5.30;;;-0.60;99.90;;;;;;5035067;28;20465;-62
2022/01/11 07:31:47;;;;;;;6.87;4.67;;;-0.60;99.90;;;;;;5032998;28;20796;-62
2022/01/11 07:34:14;;;;;;;9.73;4.63;;;-0.60;99.90;;;;;;5033196;28;20461;-62
2022/01/11 07:36:42;;;;;;;8.03;4.70;;;-0.50;99.90;;;;;;5032504;28;20838;-61
2022/01/11 07:39:09;;;;;;;10.40;4.37;;;-0.50;99.90;;;;;;5031393;28;20489;-62
2022/01/11 07:41:36;;;;;;;9.17;5.03;;;-0.50;99.90;;;;;;5032288;28;20453;-62
2022/01/11 07:44:03;;;;;;;10.70;5.77;;;-0.40;99.90;;;;;;5032225;28;20457;-63
2022/01/11 07:46:31;;;;;;;9.07;5.33;;;-0.40;99.90;;;;;;5031891;28;20499;-63
2022/01/11 07:48:59;;;;;;;10.07;5.30;;;-0.40;99.90;;;;;;5032574;28;20448;-63
2022/01/11 07:51:26;;;;;;;6.93;4.40;;;-0.40;99.90;;;;;;5032413;28;20483;-62
2022/01/11 07:53:53;;;;;;;6.30;4.30;;;-0.40;99.90;;;;;;5032020;28;20465;-63
2022/01/11 07:56:20;;;;;;;11.77;5.00;;;-0.30;99.90;;;;;;5031545;28;20446;-63
2022/01/11 07:58:47;;;;;;;8.40;4.87;;;-0.30;99.90;;;;;;5032183;28;20461;-63
2022/01/11 08:01:14;;;;;;;9.40;4.77;;;-0.30;99.90;;;;;;5031882;28;20897;-64
2022/01/11 08:03:42;;;;;;;9.33;4.20;;;-0.30;99.90;;;;;;5031676;28;20458;-62
2022/01/11 08:06:09;;;;;;;7.47;4.23;;;-0.30;99.90;;;;;;5031291;28;20458;-62
2022/01/11 08:08:35;;;;;;;6.83;4.60;;;-0.30;99.90;;;;;;5031746;28;20451;-63
2022/01/11 08:11:02;;;;;;;7.80;4.07;;;-0.30;99.90;;;;;;5031787;28;20469;-62
2022/01/11 08:13:29;;;;;;;8.47;4.10;;;-0.20;99.90;;;;;;5038688;28;20465;-63
2022/01/11 08:15:56;;;;;;;6.40;4.83;;;-0.10;99.90;;;;;;5035777;28;20817;-63
2022/01/11 08:18:23;;;;;;;6.73;4.00;;;-0.10;91.40;;;;;;5032550;28;20458;-67
2022/01/11 08:20:51;;;;;;;9.77;4.70;;;0.00;66.70;;;;;;5031411;28;20525;-65
2022/01/11 08:23:18;;;;;;;9.17;5.13;;;0.10;35.70;;;;;;5033544;28;20450;-61
2022/01/11 08:25:44;;;;;;;9.33;5.37;;;0.10;12.20;;;;;;5035626;28;20521;-61
2022/01/11 08:28:12;;;;;;;7.53;5.07;;;0.10;6.70;;;;;;5035924;28;20511;-60
2022/01/11 08:30:39;;;;;;;11.50;5.50;;;0.20;1.00;;;;;;5031512;28;20466;-61
2022/01/11 08:33:06;;;;;;;7.23;3.90;;;0.20;1.00;;;;;;5031151;28;20451;-64
2022/01/11 08:35:33;;;;;;;7.90;4.27;;;0.20;1.00;;;;;;5031149;28;20450;-61
2022/01/11 08:38:01;;;;;;;8.60;4.27;;;0.20;1.00;;;;;;5031068;28;20464;-63
2022/01/11 08:40:28;;;;;;;7.33;4.90;;;0.30;5.30;;;;;;5031108;28;20497;-68
2022/01/11 08:42:55;;;;;;;8.73;4.47;;;0.40;1.00;;;;;;5031514;28;20833;-62
2022/01/11 08:45:22;;;;;;;9.13;5.27;;;0.40;1.00;;;;;;5030795;28;20455;-59
2022/01/11 08:47:49;;;;;;;9.73;4.97;;;0.50;1.00;;;;;;5030957;28;20443;-61
2022/01/11 08:50:16;;;;;;;8.97;4.90;;;0.50;1.00;;;;;;5031178;28;20466;-63
2022/01/11 08:52:45;;;;;;;13.20;5.60;;;0.60;1.00;;;;;;5031362;28;20459;-60
2022/01/11 08:55:14;;;;;;;11.33;5.70;;;0.60;1.00;;;;;;5031142;28;20862;-60
2022/01/11 08:57:41;;;;;;;9.67;5.10;;;0.70;1.00;;;;;;5031164;28;20447;-58
2022/01/11 09:00:16;;;;;;;9.13;6.33;;;0.70;1.00;;;;;;5031113;28;20496;-62
2022/01/11 09:02:43;;;;;;;12.23;5.90;;;0.80;1.00;;;;;;5031104;28;20814;-62
2022/01/11 09:05:10;;;;;;;8.93;4.93;;;0.90;1.00;;;;;;5030858;28;20972;-64
2022/01/11 09:07:36;;;;;;;8.33;4.73;;;0.90;1.00;;;;;;5034307;28;20452;-62
2022/01/11 09:10:04;;;;;;;9.83;6.43;;;1.00;1.00;;;;;;5034899;28;20518;-60
2022/01/11 09:12:32;;;;;;;8.87;5.00;;;1.00;1.00;;;;;;5034983;28;20825;-62
2022/01/11 09:14:59;;;;;;;8.87;4.90;;;1.10;1.70;;;;;;5034441;28;20465;-63
2022/01/11 09:17:26;;;;;;;8.80;4.40;;;1.20;17.40;;;;;;5034815;28;20445;-64
2022/01/11 09:19:53;;;;;;;6.83;4.40;;;1.30;28.80;;;;;;5034471;28;20499;-64
2022/01/11 09:22:19;;;;;;;9.00;4.50;;;1.40;36.20;;;;;;5034889;28;20503;-66
2022/01/11 09:24:46;;;;;;;9.70;3.70;;;1.50;37.10;;;;;;5034534;28;20510;-66
2022/01/11 09:27:14;;;;;;;9.50;4.53;;;1.60;38.90;;;;;;5033963;28;20452;-66
2022/01/11 09:29:43;;;;;;;9.53;5.10;;;1.80;20.30;;;;;;5034206;28;20480;-65
2022/01/11 09:32:12;;;;;;;6.97;4.40;;;1.80;1.00;;;;;;5034574;28;20496;-64
2022/01/11 09:34:39;;;;;;;5.47;3.53;;;1.90;1.00;;;;;;5034209;28;20479;-64
2022/01/11 09:37:06;;;;;;;6.50;3.57;;;2.00;1.00;;;;;;5034142;28;20502;-63
2022/01/11 09:39:33;;;;;;;5.77;3.07;;;2.10;99.90;;;;;;5034201;28;20485;-64
2022/01/11 09:42:01;;;;;;;7.30;3.10;;;2.20;99.90;;;;;;5034660;28;20539;-61
2022/01/11 09:44:28;;;;;;;4.43;2.53;;;2.40;99.90;;;;;;5034119;28;20567;-60
2022/01/11 09:46:56;;;;;;;6.13;2.73;;;2.50;99.90;;;;;;5034172;28;20863;-62
2022/01/11 09:49:23;;;;;;;3.93;2.20;;;2.60;99.90;;;;;;5033934;28;20473;-62
2022/01/11 09:51:50;;;;;;;6.53;3.20;;;2.70;94.70;;;;;;5034419;28;20511;-64
2022/01/11 09:54:19;;;;;;;6.67;3.13;;;2.80;1.00;;;;;;5033968;28;20453;-63
2022/01/11 09:56:46;;;;;;;7.67;4.37;;;3.00;1.00;;;;;;5033972;28;20449;-66
2022/01/11 09:59:12;;;;;;;5.87;3.00;;;3.00;1.00;;;;;;5034382;28;20642;-63
2022/01/11 10:01:39;;;;;;;6.80;2.83;;;3.10;1.00;;;;;;5034864;28;20538;-60
2022/01/11 10:04:11;;;;;;;6.77;2.87;;;3.20;1.00;;;;;;5034401;28;20256;-63
2022/01/11 10:06:42;;;;;;;5.70;2.97;;;3.30;99.90;;;;;;5033716;28;20269;-66
2022/01/11 10:09:11;;;;;;;5.90;3.30;;;3.40;99.90;;;;;;5033481;28;20226;-66
2022/01/11 10:11:40;;;;;;;7.67;3.00;;;3.40;99.90;;;;;;5034700;28;20449;-67
2022/01/11 10:14:24;;;;;;;4.63;2.77;;;3.50;99.90;;;;;;5033681;28;20467;-65
2022/01/11 10:17:03;;;;;;;6.53;3.20;;;3.50;99.90;;;;;;5031389;28;20696;-63
2022/01/11 10:19:31;;;;;;;6.43;3.50;;;3.60;99.90;;;;;;5033321;28;20227;-59
2022/01/11 10:21:58;;;;;;;6.20;3.50;;;3.60;99.90;;;;;;5034148;28;20211;-61
2022/01/11 10:24:32;;;;;;;5.43;3.50;;;3.80;99.90;;;;;;5033355;28;20207;-64
2022/01/11 10:27:00;;;;;;;5.77;3.40;;;3.80;99.90;;;;;;5033200;28;20199;-66
2022/01/11 10:29:31;;;;;;;6.07;3.00;;;3.90;99.90;;;;;;5033394;28;20234;-64
2022/01/11 10:31:59;;;;;;;6.93;4.00;;;4.00;99.90;;;;;;5033169;28;20210;-62
2022/01/11 10:34:28;;;;;;;6.47;3.40;;;4.10;99.90;;;;;;5033606;28;20214;-62
2022/01/11 10:36:57;;;;;;;6.03;3.13;;;4.10;1.00;;;;;;5033109;28;20238;-62
2022/01/11 10:39:32;;;;;;;7.83;3.13;;;4.10;8.80;;;;;;5033659;28;20222;-61
2022/01/11 10:42:01;;;;;;;8.47;3.20;;;4.10;99.90;;;;;;5033633;28;20268;-62
2022/01/11 10:44:51;;;;;;;7.00;3.30;;;4.20;1.00;;;;;;5032872;28;20208;-63
2022/01/11 10:47:20;;;;;;;4.97;3.17;;;4.20;30.00;;;;;;5033305;28;20214;-63
2022/01/11 10:49:49;;;;;;;6.10;3.53;;;4.30;46.30;;;;;;5033524;28;20236;-60
2022/01/11 10:52:20;;;;;;;6.20;3.00;;;4.30;1.00;;;;;;5033531;28;20674;-65
2022/01/11 10:54:47;;;;;;;5.93;3.30;;;4.50;1.00;;;;;;5033746;28;20203;-63
2022/01/11 10:57:19;;;;;;;7.77;3.20;;;4.50;1.00;;;;;;5033028;28;20221;-58
2022/01/11 11:00:19;;;;;;;6.13;4.10;;;4.60;99.90;;;;;;5033007;28;20240;-60
2022/01/11 11:02:50;;;;;;;9.50;3.87;;;4.70;1.00;;;;;;5029889;28;20220;-67
2022/01/11 11:05:21;;;;;;;17.37;7.23;;;4.70;99.90;;;;;;5032323;28;20282;-67
2022/01/11 11:08:17;;;;;;;11.03;4.60;;;4.80;99.90;;;;;;5032877;28;20208;-66
2022/01/11 11:10:47;;;;;;;9.77;4.37;;;4.80;99.90;;;;;;5033054;28;20221;-65
2022/01/11 11:13:25;;;;;;;8.33;4.53;;;4.80;99.90;;;;;;5032262;28;20229;-62
2022/01/11 11:15:53;;;;;;;13.30;4.33;;;4.90;99.90;;;;;;5032235;28;20267;-63
2022/01/11 11:18:33;;;;;;;8.60;4.43;;;4.90;99.90;;;;;;5032679;28;20215;-63
2022/01/11 11:21:13;;;;;;;7.67;4.07;;;5.00;1.00;;;;;;5033488;28;20236;-62
2022/01/11 11:23:41;;;;;;;7.73;4.40;;;5.10;99.90;;;;;;5033186;28;20199;-62
2022/01/11 11:26:08;;;;;;;7.27;4.60;;;5.10;99.90;;;;;;5032018;28;20622;-61
2022/01/11 11:28:35;;;;;;;10.00;4.57;;;5.10;99.90;;;;;;5032218;28;20231;-58
2022/01/11 11:31:03;;;;;;;10.73;4.83;;;5.20;99.90;;;;;;5032223;28;20222;-60
2022/01/11 11:33:30;;;;;;;7.37;5.03;;;5.30;99.90;;;;;;5032179;28;20674;-60
2022/01/11 11:35:58;;;;;;;10.13;4.83;;;5.30;97.70;;;;;;5031837;28;20692;-59
2022/01/11 11:38:32;;;;;;;10.23;4.77;;;5.40;99.90;;;;;;5032293;28;20214;-57
2022/01/11 11:41:01;;;;;;;12.00;5.60;;;5.40;99.90;;;;;;5032510;28;20284;-60
2022/01/11 11:43:28;;;;;;;7.80;4.60;;;5.40;99.90;;;;;;5036064;28;20559;-60
2022/01/11 11:45:55;;;;;;;35.53;13.13;;;5.50;99.90;;;;;;5034236;28;20258;-58
2022/01/11 11:48:24;;;;;;;13.40;5.60;;;5.60;99.90;;;;;;5032088;28;20209;-56
2022/01/11 11:50:53;;;;;;;9.77;4.93;;;5.60;99.90;;;;;;5032317;28;20292;-62
2022/01/11 11:53:23;;;;;;;9.47;5.50;;;5.70;99.90;;;;;;5035726;28;20238;-62
2022/01/11 11:55:50;;;;;;;14.07;6.73;;;5.80;99.90;;;;;;5037058;28;20206;-62
2022/01/11 11:58:22;;;;;;;10.17;5.80;;;5.80;99.90;;;;;;5035612;28;20220;-62
2022/01/11 12:00:51;;;;;;;16.10;6.40;;;5.70;99.90;;;;;;5031303;28;20699;-62
2022/01/11 12:03:22;;;;;;;14.87;6.30;;;5.70;99.90;;;;;;5031821;28;20616;-62
2022/01/11 12:05:49;;;;;;;13.17;6.10;;;5.80;1.00;;;;;;5031123;28;20206;-62
2022/01/11 12:08:34;;;;;;;12.53;5.40;;;5.90;99.90;;;;;;5031601;28;20206;-60
2022/01/11 12:11:04;;;;;;;12.30;5.57;;;5.80;99.90;;;;;;5031627;28;20222;-64
2022/01/11 12:13:50;;;;;;;10.43;5.70;;;5.90;99.90;;;;;;5031485;28;20218;-62
2022/01/11 12:16:50;;;;;;;12.93;6.43;;;5.90;99.90;;;;;;5031402;28;20217;-63
2022/01/11 12:19:51;;;;;;;11.27;5.70;;;6.00;99.90;;;;;;5031591;28;20236;-62
2022/01/11 12:22:26;;;;;;;12.53;6.17;;;6.00;99.90;;;;;;4970471;28;20232;-63
2022/01/11 12:24:56;;;;;;;11.67;5.30;;;6.00;99.90;;;;;;4970083;28;20237;-63
2022/01/11 12:27:24;;;;;;;12.93;6.33;;;6.10;99.90;;;;;;5002335;28;20206;-62
2022/01/11 12:29:58;;;;;;;13.77;6.13;;;6.20;99.90;;;;;;5031098;28;20226;-62
2022/01/11 12:32:26;;;;;;;10.30;5.90;;;6.20;80.40;;;;;;5031600;28;20202;-62
2022/01/11 12:35:03;;;;;;;10.77;5.80;;;6.30;99.90;;;;;;5031040;28;20284;-61
2022/01/11 12:37:33;;;;;;;12.60;5.50;;;6.40;99.90;;;;;;5031095;28;20213;-61
2022/01/11 12:40:23;;;;;;;10.43;5.43;;;6.50;1.00;;;;;;5032997;28;20230;-63
2022/01/11 12:42:53;;;;;;;11.53;5.43;;;6.40;1.00;;;;;;5035711;28;20206;-64
2022/01/11 12:45:53;;;;;;;7.90;4.63;;;6.50;98.90;;;;;;5035180;28;20820;-62
2022/01/11 12:49:08;;;;;;;10.37;5.73;;;6.50;1.00;;;;;;5035077;28;20213;-62
2022/01/11 12:51:48;;;;;;;6.60;4.43;;;6.50;1.00;;;;;;5035427;28;20203;-64
2022/01/11 12:54:30;;;;;;;10.60;5.23;;;6.50;1.00;;;;;;5035009;28;20703;-63
2022/01/11 12:56:59;;;;;;;11.33;4.80;;;6.50;99.90;;;;;;5035006;28;20209;-63
2022/01/11 12:59:28;;;;;;;5.67;3.93;;;6.50;99.90;;;;;;5035056;28;20265;-61
2022/01/11 13:02:09;;;;;;;8.90;4.93;;;6.50;99.90;;;;;;5034735;28;20307;-63